createdAt,value
2023-11-25T00:02:11.824Z,96244.54
2023-11-25T00:04:39.934Z,96246.63
2023-11-25T00:07:07.925Z,96248.20
2023-11-25T00:09:35.800Z,96251.61
2023-11-25T00:12:03.923Z,96249.13
2023-11-25T00:14:31.898Z,96248.81
2023-11-25T00:16:59.784Z,96249.34
2023-11-25T00:19:27.791Z,96252.44
2023-11-25T00:21:55.827Z,96255.98
2023-11-25T00:24:23.761Z,96260.48
2023-11-25T00:26:51.669Z,96264.67
2023-11-25T00:29:19.737Z,96264.10
2023-11-25T00:31:56.026Z,96264.10
2023-11-25T00:34:25.639Z,96261.62
2023-11-25T00:36:53.667Z,96262.14
2023-11-25T00:39:22.037Z,96265.12
2023-11-25T00:41:49.911Z,96259.33
2023-11-25T00:44:17.816Z,96258.09
2023-11-25T00:46:45.966Z,96262.46
2023-11-25T00:49:16.345Z,96260.77
2023-11-25T00:51:44.256Z,96263.23
2023-11-25T00:54:12.157Z,96256.70
2023-11-25T00:56:40.368Z,96254.58
2023-11-25T00:59:09.282Z,96256.11
2023-11-25T01:02:02.486Z,96258.26
2023-11-25T01:04:31.728Z,96258.44
2023-11-25T01:06:59.644Z,96251.45
2023-11-25T01:09:31.836Z,96240.71
2023-11-25T01:11:59.788Z,96236.23
2023-11-25T01:14:28.596Z,96236.68
2023-11-25T01:16:56.575Z,96231.80
2023-11-25T01:19:24.985Z,96235.91
2023-11-25T01:21:52.897Z,96239.04
2023-11-25T01:24:21.529Z,96237.67
2023-11-25T01:26:49.865Z,96233.80
2023-11-25T01:29:18.707Z,96231.11
2023-11-25T01:31:46.654Z,96235.64
2023-11-25T01:34:14.632Z,96234.64
2023-11-25T01:36:42.663Z,96233.98
2023-11-25T01:39:10.561Z,96234.11
2023-11-25T01:41:38.415Z,96232.27
2023-11-25T01:44:08.737Z,96236.52
2023-11-25T01:46:38.812Z,96238.45
2023-11-25T01:49:13.782Z,96238.89
2023-11-25T01:51:46.180Z,96239.41
2023-11-25T01:54:16.499Z,96236.17
2023-11-25T01:56:49.711Z,96232.66
2023-11-25T01:59:19.559Z,96232.77
2023-11-25T02:01:47.776Z,96234.09
2023-11-25T02:04:16.039Z,96234.19
2023-11-25T02:06:44.031Z,96236.17
2023-11-25T02:09:12.932Z,96241.13
2023-11-25T02:11:56.132Z,96242.36
2023-11-25T02:14:26.421Z,96242.59
2023-11-25T02:16:57.037Z,96239.98
2023-11-25T02:19:26.084Z,96240.27
2023-11-25T02:21:54.966Z,96238.84
2023-11-25T02:24:27.917Z,96239.01
2023-11-25T02:27:00.486Z,96237.40
2023-11-25T02:29:29.420Z,96229.09
2023-11-25T02:31:59.946Z,96235.80
2023-11-25T02:34:28.667Z,96237.39
2023-11-25T02:36:59.145Z,96237.57
2023-11-25T02:39:27.110Z,96241.42
2023-11-25T02:41:55.521Z,96245.92
2023-11-25T02:44:23.644Z,96246.99
2023-11-25T02:46:51.665Z,96240.73
2023-11-25T02:49:22.568Z,96248.44
2023-11-25T02:51:52.542Z,96245.52
2023-11-25T02:54:23.261Z,96249.77
2023-11-25T02:56:51.516Z,96254.82
2023-11-25T02:59:20.085Z,96256.03
2023-11-25T03:01:53.641Z,96258.39
2023-11-25T03:04:28.235Z,96252.80
2023-11-25T03:06:56.932Z,96256.04
2023-11-25T03:09:27.120Z,96263.04
2023-11-25T03:11:55.102Z,96263.63
2023-11-25T03:14:23.705Z,96269.78
2023-11-25T03:16:55.936Z,96272.26
2023-11-25T03:19:26.805Z,96271.15
2023-11-25T03:21:54.686Z,96271.41
2023-11-25T03:24:25.449Z,96268.26
2023-11-25T03:26:54.164Z,96269.94
2023-11-25T03:29:22.455Z,96271.88
2023-11-25T03:31:51.709Z,96270.59
2023-11-25T03:34:19.698Z,96276.52
2023-11-25T03:36:48.300Z,96280.44
2023-11-25T03:39:16.637Z,96287.00
2023-11-25T03:41:44.654Z,96286.63
2023-11-25T03:44:12.650Z,96288.13
2023-11-25T03:46:43.383Z,96291.89
2023-11-25T03:49:13.640Z,96294.14
2023-11-25T03:51:41.608Z,96294.54
2023-11-25T03:54:10.167Z,96295.46
2023-11-25T03:56:38.079Z,96299.55
2023-11-25T03:59:06.112Z,96300.28
2023-11-25T04:01:34.174Z,96302.96
2023-11-25T04:04:05.064Z,96306.48
2023-11-25T04:06:33.305Z,96315.08
2023-11-25T04:09:01.289Z,96322.10
2023-11-25T04:11:29.344Z,96325.58
2023-11-25T04:13:59.153Z,96327.17
2023-11-25T04:16:27.124Z,96335.52
2023-11-25T04:18:55.365Z,96334.20
2023-11-25T04:21:24.318Z,96339.31
2023-11-25T04:23:56.967Z,96343.60
2023-11-25T04:26:26.114Z,96347.80
2023-11-25T04:28:54.162Z,96344.80
2023-11-25T04:31:22.257Z,96345.66
2023-11-25T04:33:50.174Z,96353.19
2023-11-25T04:36:20.037Z,96354.84
2023-11-25T04:38:48.276Z,96356.79
2023-11-25T04:41:16.303Z,96363.63
2023-11-25T04:43:44.893Z,96370.19
2023-11-25T04:46:12.966Z,96373.98
2023-11-25T04:48:41.908Z,96381.85
2023-11-25T04:51:10.621Z,96398.27
2023-11-25T04:53:39.029Z,96405.00
2023-11-25T04:56:07.186Z,96416.48
2023-11-25T04:58:35.073Z,96425.00
2023-11-25T05:01:03.161Z,96427.27
2023-11-25T05:03:31.129Z,96433.00
2023-11-25T05:05:59.084Z,96439.55
2023-11-25T05:08:27.089Z,96443.40
2023-11-25T05:10:55.067Z,96442.20
2023-11-25T05:13:23.036Z,96450.80
2023-11-25T05:15:50.977Z,96454.40
2023-11-25T05:18:19.002Z,96458.26
2023-11-25T05:20:47.018Z,96461.70
2023-11-25T05:23:14.870Z,96458.56
2023-11-25T05:25:42.835Z,96463.15
2023-11-25T05:28:10.763Z,96470.02
2023-11-25T05:30:38.741Z,96476.28
2023-11-25T05:33:06.708Z,96483.94
2023-11-25T05:35:34.608Z,96486.90
2023-11-25T05:38:02.625Z,96493.28
2023-11-25T05:40:31.171Z,96494.05
2023-11-25T05:43:01.947Z,96506.33
2023-11-25T05:45:32.110Z,96509.19
2023-11-25T05:48:00.311Z,96517.04
2023-11-25T05:50:28.594Z,96520.55
2023-11-25T05:52:57.635Z,96529.89
2023-11-25T05:55:27.867Z,96531.36
2023-11-25T05:57:57.601Z,96527.05
2023-11-25T06:00:26.768Z,96530.85
2023-11-25T06:02:54.683Z,96537.15
2023-11-25T06:05:23.233Z,96540.59
2023-11-25T06:07:51.506Z,96545.63
2023-11-25T06:10:20.233Z,96545.27
2023-11-25T06:12:48.505Z,96551.69
2023-11-25T06:15:17.128Z,96555.91
2023-11-25T06:17:46.693Z,96561.63
2023-11-25T06:20:14.710Z,96563.23
2023-11-25T06:22:42.764Z,96571.18
2023-11-25T06:25:10.910Z,96575.93
2023-11-25T06:27:38.910Z,96576.71
2023-11-25T06:30:07.425Z,96576.35
2023-11-25T06:32:35.366Z,96586.77
2023-11-25T06:35:03.791Z,96592.45
2023-11-25T06:37:31.848Z,96594.42
2023-11-25T06:39:59.810Z,96601.69
2023-11-25T06:42:27.838Z,96614.64
2023-11-25T06:44:55.838Z,96618.21
2023-11-25T06:47:23.968Z,96618.81
2023-11-25T06:49:54.909Z,96626.98
2023-11-25T06:52:22.781Z,96629.21
2023-11-25T06:54:50.942Z,96633.17
2023-11-25T06:57:18.848Z,96639.13
2023-11-25T06:59:47.162Z,96645.71
2023-11-25T07:02:16.104Z,96652.08
2023-11-25T07:04:44.492Z,96657.79
2023-11-25T07:07:12.909Z,96661.65
2023-11-25T07:09:41.919Z,96664.96
2023-11-25T07:12:11.574Z,96668.22
2023-11-25T07:14:39.871Z,96670.36
2023-11-25T07:17:07.798Z,96673.89
2023-11-25T07:19:35.834Z,96675.55
2023-11-25T07:22:05.065Z,96674.86
2023-11-25T07:24:34.115Z,96676.77
2023-11-25T07:27:06.405Z,96680.11
2023-11-25T07:29:34.702Z,96681.48
2023-11-25T07:32:02.749Z,96684.97
2023-11-25T07:34:36.221Z,96684.77
2023-11-25T07:37:04.832Z,96687.84
2023-11-25T07:39:34.605Z,96686.75
2023-11-25T07:42:02.995Z,96690.20
2023-11-25T07:44:34.163Z,96693.98
2023-11-25T07:47:04.975Z,96692.15
2023-11-25T07:49:33.130Z,96690.15
2023-11-25T07:52:01.454Z,96688.41
2023-11-25T07:54:29.598Z,96690.63
2023-11-25T07:56:57.781Z,96692.72
2023-11-25T07:59:26.793Z,96693.49
2023-11-25T08:01:54.873Z,96697.55
2023-11-25T08:04:23.782Z,96694.29
2023-11-25T08:06:52.006Z,96697.21
2023-11-25T08:09:20.012Z,96703.12
2023-11-25T08:11:47.888Z,96711.23
2023-11-25T08:14:16.003Z,96713.19
2023-11-25T08:16:44.450Z,96724.35
2023-11-25T08:19:12.508Z,96722.09
2023-11-25T08:21:40.401Z,96727.88
2023-11-25T08:24:08.820Z,96738.18
2023-11-25T08:26:36.798Z,96746.80
2023-11-25T08:29:04.751Z,96753.48
2023-11-25T08:31:32.888Z,96757.67
2023-11-25T08:34:05.681Z,96757.93
2023-11-25T08:36:33.693Z,96761.31
2023-11-25T08:39:02.887Z,96762.15
2023-11-25T08:41:31.311Z,96764.98
2023-11-25T08:44:00.531Z,96770.99
2023-11-25T08:46:28.891Z,96770.05
2023-11-25T08:48:57.045Z,96781.73
2023-11-25T08:51:25.425Z,96782.57
2023-11-25T08:53:55.367Z,96788.38
2023-11-25T08:56:28.979Z,96792.52
2023-11-25T08:59:06.626Z,96799.84
2023-11-25T09:01:40.735Z,96799.04
2023-11-25T09:04:09.026Z,96800.94
2023-11-25T09:06:40.906Z,96796.90
2023-11-25T09:09:09.373Z,96806.64
2023-11-25T09:11:38.076Z,96810.20
2023-11-25T09:14:07.400Z,96812.27
2023-11-25T09:16:35.408Z,96815.96
2023-11-25T09:19:04.146Z,96813.45
2023-11-25T09:21:32.084Z,96809.91
2023-11-25T09:24:00.105Z,96806.34
2023-11-25T09:26:28.114Z,96805.27
2023-11-25T09:28:56.598Z,96807.13
2023-11-25T09:31:24.684Z,96805.26
2023-11-25T09:33:52.826Z,96807.16
2023-11-25T09:36:23.873Z,96804.92
2023-11-25T09:38:52.585Z,96805.52
2023-11-25T09:41:20.685Z,96805.44
2023-11-25T09:43:49.039Z,96797.41
2023-11-25T09:46:18.212Z,96801.96
2023-11-25T09:48:47.116Z,96808.41
2023-11-25T09:51:22.148Z,96804.59
2023-11-25T09:53:57.239Z,96803.27
2023-11-25T09:56:25.198Z,96807.76
2023-11-25T09:58:54.135Z,96815.41
2023-11-25T10:01:24.035Z,96810.88
2023-11-25T10:03:56.570Z,96811.51
2023-11-25T10:06:26.645Z,96810.14
2023-11-25T10:08:54.570Z,96808.01
2023-11-25T10:11:24.341Z,96807.08
2023-11-25T10:13:52.262Z,96806.27
2023-11-25T10:16:29.451Z,96803.02
2023-11-25T10:19:00.361Z,96804.06
2023-11-25T10:21:28.338Z,96806.14
2023-11-25T10:24:07.664Z,96809.72
2023-11-25T10:26:38.758Z,96810.91
2023-11-25T10:29:07.714Z,96819.70
2023-11-25T10:31:35.657Z,96824.43
2023-11-25T10:34:04.022Z,96821.41
2023-11-25T10:36:32.023Z,96822.14
2023-11-25T10:39:03.328Z,96824.77
2023-11-25T10:41:32.406Z,96823.61
2023-11-25T10:44:02.241Z,96823.59
2023-11-25T10:46:39.872Z,96822.21
2023-11-25T10:49:13.376Z,96826.67
2023-11-25T10:51:45.337Z,96833.77
2023-11-25T10:54:16.578Z,96828.64
2023-11-25T10:56:45.778Z,96828.64
2023-11-25T10:59:16.838Z,96830.70
2023-11-25T11:01:45.871Z,96823.13
2023-11-25T11:04:28.233Z,96823.95
2023-11-25T11:07:02.360Z,96822.70
2023-11-25T11:09:34.876Z,96817.92
2023-11-25T11:12:13.917Z,96822.61
2023-11-25T11:14:52.771Z,96822.16
2023-11-25T11:17:34.512Z,96815.73
2023-11-25T11:20:03.038Z,96816.00
2023-11-25T11:22:32.649Z,96821.27
2023-11-25T11:25:21.606Z,96825.66
2023-11-25T11:30:57.993Z,96842.27
2023-11-25T11:33:26.389Z,96844.08
2023-11-25T11:35:54.833Z,96842.31
2023-11-25T11:38:25.154Z,96842.65
2023-11-25T11:41:08.589Z,96838.67
2023-11-25T11:43:36.553Z,96837.63
2023-11-25T11:46:05.774Z,96838.48
2023-11-25T11:48:34.689Z,96841.77
2023-11-25T11:51:02.553Z,96840.73
2023-11-25T11:53:30.528Z,96837.56
2023-11-25T11:55:59.459Z,96838.40
2023-11-25T11:58:28.975Z,96829.85
2023-11-25T12:01:03.786Z,96832.58
2023-11-25T12:03:33.499Z,96832.52
2023-11-25T12:06:01.584Z,96829.31
2023-11-25T12:08:32.022Z,96830.92
2023-11-25T12:11:00.120Z,96830.95
2023-11-25T12:13:32.362Z,96833.06
2023-11-25T12:16:01.868Z,96831.42
2023-11-25T12:18:37.265Z,96829.06
2023-11-25T12:21:06.662Z,96834.23
2023-11-25T12:26:08.309Z,96840.95
2023-11-25T12:28:46.385Z,96842.38
2023-11-25T12:31:14.360Z,96842.25
2023-11-25T12:33:42.300Z,96839.23
2023-11-25T12:36:10.268Z,96838.52
2023-11-25T12:38:38.942Z,96842.83
2023-11-25T12:41:13.325Z,96841.36
2023-11-25T12:44:05.441Z,96845.09
2023-11-25T12:46:33.695Z,96848.23
2023-11-25T12:49:18.916Z,96854.20
2023-11-25T12:51:46.873Z,96848.14
2023-11-25T12:54:15.605Z,96848.61
2023-11-25T12:56:50.726Z,96852.36
2023-11-25T12:59:29.472Z,96852.83
2023-11-25T13:02:09.716Z,96850.49
2023-11-25T13:04:48.605Z,96855.48
2023-11-25T13:07:31.217Z,96852.45
2023-11-25T13:09:59.948Z,96852.27
2023-11-25T13:12:32.939Z,96852.00
2023-11-25T13:15:01.035Z,96854.39
2023-11-25T13:17:29.583Z,96852.16
2023-11-25T13:19:59.062Z,96858.61
2023-11-25T13:22:27.182Z,96856.63
2023-11-25T13:24:55.088Z,96858.22
2023-11-25T13:27:23.728Z,96858.14
2023-11-25T13:29:51.633Z,96860.46
2023-11-25T13:32:19.568Z,96862.77
2023-11-25T13:34:47.599Z,96861.23
2023-11-25T13:37:15.561Z,96860.67
2023-11-25T13:39:45.189Z,96853.14
2023-11-25T13:42:13.057Z,96857.92
2023-11-25T13:44:40.921Z,96863.10
2023-11-25T13:47:08.881Z,96871.94
2023-11-25T13:49:36.870Z,96875.92
2023-11-25T13:52:07.185Z,96882.15
2023-11-25T13:54:35.891Z,96884.48
2023-11-25T13:57:03.976Z,96880.73
2023-11-25T13:59:32.503Z,96875.45
2023-11-25T14:02:03.616Z,96881.52
2023-11-25T14:04:33.632Z,96879.54
2023-11-25T14:07:01.814Z,96881.45
2023-11-25T14:09:29.969Z,96880.95
2023-11-25T14:11:58.242Z,96881.02
2023-11-25T14:14:26.633Z,96879.39
2023-11-25T14:16:56.652Z,96880.17
2023-11-25T14:19:24.815Z,96873.77
2023-11-25T14:21:53.210Z,96887.98
2023-11-25T14:24:22.909Z,96885.14
2023-11-25T14:26:50.811Z,96882.02
2023-11-25T14:29:18.993Z,96884.95
2023-11-25T14:31:47.037Z,96885.81
2023-11-25T14:34:15.756Z,96886.26
2023-11-25T14:36:44.936Z,96888.39
2023-11-25T14:39:19.649Z,96887.90
2023-11-25T14:41:49.345Z,96894.48
2023-11-25T14:44:17.478Z,96893.31
2023-11-25T14:46:51.702Z,96895.99
2023-11-25T14:49:19.717Z,96897.82
2023-11-25T14:51:47.606Z,96893.66
2023-11-25T14:54:15.673Z,96892.98
2023-11-25T14:56:45.152Z,96898.23
2023-11-25T14:59:16.018Z,96903.56
2023-11-25T15:01:44.072Z,96905.10
2023-11-25T15:04:12.154Z,96905.86
2023-11-25T15:06:42.514Z,96904.10
2023-11-25T15:09:13.189Z,96907.16
2023-11-25T15:11:41.581Z,96910.19
2023-11-25T15:14:09.593Z,96908.70
2023-11-25T15:16:38.700Z,96910.95
2023-11-25T15:19:07.756Z,96914.20
2023-11-25T15:21:35.630Z,96912.83
2023-11-25T15:24:03.897Z,96915.48
2023-11-25T15:26:31.754Z,96922.45
2023-11-25T15:28:59.690Z,96918.29
2023-11-25T15:31:27.732Z,96924.33
2023-11-25T15:33:55.807Z,96924.83
2023-11-25T15:36:23.712Z,96929.11
2023-11-25T15:38:51.559Z,96933.31
2023-11-25T15:41:19.458Z,96933.89
2023-11-25T15:43:47.490Z,96935.94
2023-11-25T15:46:15.554Z,96934.43
2023-11-25T15:48:43.506Z,96932.57
2023-11-25T15:51:11.527Z,96932.33
2023-11-25T15:53:39.465Z,96930.03
2023-11-25T15:56:07.779Z,96928.63
2023-11-25T15:58:36.028Z,96928.61
2023-11-25T16:01:04.049Z,96922.64
2023-11-25T16:03:31.998Z,96915.98
2023-11-25T16:06:00.048Z,96918.05
2023-11-25T16:08:28.131Z,96918.70
2023-11-25T16:10:56.062Z,96922.70
2023-11-25T16:13:23.921Z,96922.69
2023-11-25T16:15:51.931Z,96927.21
2023-11-25T16:18:21.836Z,96924.79
2023-11-25T16:20:50.924Z,96925.41
2023-11-25T16:23:20.416Z,96923.25
2023-11-25T16:25:48.264Z,96923.73
2023-11-25T16:28:16.370Z,96927.27
2023-11-25T16:30:44.392Z,96926.93
2023-11-25T16:33:12.438Z,96930.40
2023-11-25T16:35:41.643Z,96931.97
2023-11-25T16:38:09.699Z,96932.91
2023-11-25T16:40:37.742Z,96932.10
2023-11-25T16:43:06.214Z,96933.79
2023-11-25T16:45:34.415Z,96935.84
2023-11-25T16:48:02.749Z,96941.85
2023-11-25T16:50:30.775Z,96937.77
2023-11-25T16:52:58.749Z,96944.92
2023-11-25T16:55:26.979Z,96947.69
2023-11-25T16:57:54.914Z,96947.02
2023-11-25T17:00:22.845Z,96948.45
2023-11-25T17:02:51.452Z,96950.54
2023-11-25T17:05:19.719Z,96950.62
2023-11-25T17:07:47.709Z,96954.23
2023-11-25T17:10:16.549Z,96953.93
2023-11-25T17:12:44.423Z,96954.21
2023-11-25T17:15:12.308Z,96953.93
2023-11-25T17:17:42.383Z,96957.48
2023-11-25T17:20:11.994Z,96959.21
2023-11-25T17:22:40.107Z,96966.27
2023-11-25T17:25:11.547Z,96966.10
2023-11-25T17:27:39.572Z,96970.05
2023-11-25T17:30:07.922Z,96970.69
2023-11-25T17:32:35.981Z,96974.59
2023-11-25T17:35:05.268Z,96973.62
2023-11-25T17:37:33.427Z,96967.56
2023-11-25T17:40:02.278Z,96967.92
2023-11-25T17:42:30.272Z,96964.81
2023-11-25T17:44:58.189Z,96963.23
2023-11-25T17:47:27.220Z,96962.98
2023-11-25T17:49:55.234Z,96967.39
2023-11-25T17:52:23.341Z,96966.25
2023-11-25T17:54:51.367Z,96966.20
2023-11-25T17:57:19.332Z,96967.99
2023-11-25T17:59:47.370Z,96970.63
2023-11-25T18:02:15.802Z,96974.23
2023-11-25T18:04:43.894Z,96972.31
2023-11-25T18:07:11.836Z,96971.91
2023-11-25T18:09:39.803Z,96978.42
2023-11-25T18:12:07.679Z,96974.89
2023-11-25T18:14:35.575Z,96971.33
2023-11-25T18:17:03.708Z,96965.35
2023-11-25T18:19:31.748Z,96968.35
2023-11-25T18:21:59.759Z,96967.05
2023-11-25T18:24:27.742Z,96960.89
2023-11-25T18:26:56.943Z,96965.55
2023-11-25T18:29:24.845Z,96967.77
2023-11-25T18:31:53.472Z,96968.92
2023-11-25T18:34:21.432Z,96968.42
2023-11-25T18:36:49.781Z,96967.43
2023-11-25T18:39:17.664Z,96967.85
2023-11-25T18:41:45.994Z,96968.77
2023-11-25T18:44:13.985Z,96966.84
2023-11-25T18:46:42.161Z,96972.91
2023-11-25T18:49:11.971Z,96976.45
2023-11-25T18:51:41.930Z,96976.95
2023-11-25T18:54:10.032Z,96980.09
2023-11-25T18:56:37.908Z,96979.96
2023-11-25T18:59:07.799Z,96978.55
2023-11-25T19:01:37.010Z,96978.45
2023-11-25T19:04:05.283Z,96975.86
2023-11-25T19:06:34.466Z,96973.45
2023-11-25T19:09:02.415Z,96972.91
2023-11-25T19:11:30.399Z,96971.60
2023-11-25T19:13:58.463Z,96968.52
2023-11-25T19:16:26.477Z,96971.56
2023-11-25T19:18:54.337Z,96977.05
2023-11-25T19:21:22.256Z,96974.27
2023-11-25T19:23:50.152Z,96976.95
2023-11-25T19:26:18.173Z,96968.23
2023-11-25T19:28:46.122Z,96963.77
2023-11-25T19:31:14.090Z,96969.64
2023-11-25T19:33:44.597Z,96970.67
2023-11-25T19:36:14.187Z,96973.61
2023-11-25T19:38:42.027Z,96977.88
2023-11-25T19:41:09.955Z,96981.84
2023-11-25T19:43:37.936Z,96977.16
2023-11-25T19:46:06.036Z,96974.14
2023-11-25T19:48:37.148Z,96977.41
2023-11-25T19:51:05.137Z,96976.96
2023-11-25T19:53:49.447Z,96976.56
2023-11-25T19:56:20.583Z,96983.63
2023-11-25T19:58:49.080Z,96978.16
2023-11-25T20:01:17.270Z,96983.62
2023-11-25T20:03:45.263Z,96988.41
2023-11-25T20:06:13.264Z,96992.10
2023-11-25T20:08:42.412Z,96994.02
2023-11-25T20:11:10.429Z,96996.77
2023-11-25T20:13:38.439Z,96999.95
2023-11-25T20:16:06.531Z,96997.28
2023-11-25T20:18:34.535Z,96990.95
2023-11-25T20:21:02.456Z,96997.65
2023-11-25T20:23:30.434Z,97003.86
2023-11-25T20:25:58.713Z,97002.88
2023-11-25T20:28:26.663Z,97005.80
2023-11-25T20:30:55.104Z,97003.78
2023-11-25T20:33:23.016Z,97008.63
2023-11-25T20:35:52.418Z,97005.63
2023-11-25T20:38:20.334Z,97009.30
2023-11-25T20:40:48.353Z,97005.92
2023-11-25T20:43:16.639Z,97005.19
2023-11-25T20:45:44.617Z,97010.14
2023-11-25T20:48:12.647Z,97010.82
2023-11-25T20:50:41.205Z,97013.55
2023-11-25T20:53:09.424Z,97009.04
2023-11-25T20:55:40.245Z,97004.55
2023-11-25T20:58:09.222Z,97006.23
2023-11-25T21:00:39.042Z,97003.42
2023-11-25T21:03:07.021Z,96999.25
2023-11-25T21:05:36.110Z,96995.73
2023-11-25T21:08:04.343Z,96999.29
2023-11-25T21:10:32.766Z,96994.52
2023-11-25T21:13:00.631Z,96994.83
2023-11-25T21:15:28.516Z,96992.45
2023-11-25T21:17:56.684Z,96994.30
2023-11-25T21:20:24.618Z,96992.13
2023-11-25T21:22:53.020Z,96989.63
2023-11-25T21:25:23.225Z,96993.36
2023-11-25T21:27:54.616Z,96993.09
2023-11-25T21:30:22.750Z,96989.48
2023-11-25T21:32:51.261Z,96993.35
2023-11-25T21:35:19.803Z,96995.60
2023-11-25T21:37:47.922Z,96992.95
2023-11-25T21:40:22.897Z,96991.36
2023-11-25T21:42:52.258Z,96997.25
2023-11-25T21:45:20.250Z,96994.59
2023-11-25T21:47:48.615Z,96998.27
2023-11-25T21:50:16.912Z,96999.08
2023-11-25T21:52:45.556Z,97000.03
2023-11-25T21:55:13.487Z,96995.35
2023-11-25T21:57:41.388Z,96992.13
2023-11-25T22:00:11.529Z,96995.92
2023-11-25T22:02:42.543Z,97000.11
2023-11-25T22:05:12.579Z,96999.15
2023-11-25T22:07:40.793Z,97006.59
2023-11-25T22:10:21.475Z,97011.11
2023-11-25T22:12:57.212Z,97010.81
2023-11-25T22:15:26.056Z,97016.32
2023-11-25T22:17:54.486Z,97020.35
2023-11-25T22:20:23.378Z,97021.27
2023-11-25T22:22:51.917Z,97016.25
2023-11-25T22:25:28.113Z,97022.38
2023-11-25T22:27:56.518Z,97016.72
2023-11-25T22:30:25.277Z,97017.40
2023-11-25T22:32:53.538Z,97012.05
2023-11-25T22:35:22.148Z,97012.21
2023-11-25T22:37:50.290Z,97014.61
2023-11-25T22:40:18.533Z,97008.22
2023-11-25T22:42:46.620Z,97015.16
2023-11-25T22:45:15.018Z,97014.58
2023-11-25T22:47:43.263Z,97016.99
2023-11-25T22:50:11.316Z,97018.75
2023-11-25T22:52:39.556Z,97016.69
2023-11-25T22:55:07.814Z,97014.95
2023-11-25T22:57:36.723Z,97018.52
2023-11-25T23:00:06.138Z,97020.34
2023-11-25T23:02:34.807Z,97020.52
2023-11-25T23:05:03.453Z,97023.33
2023-11-25T23:07:31.378Z,97019.36
2023-11-25T23:09:59.334Z,97017.35
2023-11-25T23:12:30.612Z,97021.23
2023-11-25T23:15:03.652Z,97018.90
2023-11-25T23:17:33.070Z,97019.60
2023-11-25T23:20:01.162Z,97018.55
2023-11-25T23:22:29.066Z,97020.42
2023-11-25T23:24:56.952Z,97018.65
2023-11-25T23:27:24.903Z,97021.84
2023-11-25T23:29:52.694Z,97024.95
2023-11-25T23:32:20.848Z,97019.94
2023-11-25T23:34:49.380Z,97021.33
2023-11-25T23:37:17.404Z,97017.37
2023-11-25T23:39:45.462Z,97016.80
2023-11-25T23:42:13.782Z,97015.48
2023-11-25T23:44:41.838Z,97018.73
2023-11-25T23:47:09.813Z,97018.00
2023-11-25T23:49:37.745Z,97017.77
2023-11-25T23:52:07.239Z,97017.25
2023-11-25T23:54:38.695Z,97021.19
2023-11-25T23:57:06.581Z,97020.23
2023-11-25T23:59:35.166Z,97020.45
